createdAt,value
2023-05-20T00:03:46.701Z,2.60
2023-05-20T00:08:50.033Z,5.90
2023-05-20T00:13:53.037Z,3.60
2023-05-20T00:18:57.119Z,3.60
2023-05-20T00:24:00.280Z,2.70
2023-05-20T00:29:03.386Z,2.60
2023-05-20T00:34:07.091Z,2.50
2023-05-20T00:39:10.120Z,2.20
2023-05-20T00:44:13.121Z,2.50
2023-05-20T00:49:16.349Z,2.20
2023-05-20T00:54:19.849Z,2.50
2023-05-20T00:59:23.373Z,2.10
2023-05-20T01:04:27.199Z,2.30
2023-05-20T01:09:32.091Z,2.20
2023-05-20T01:14:40.996Z,2.20
2023-05-20T01:19:45.778Z,2.30
2023-05-20T01:24:48.948Z,2.30
2023-05-20T01:29:53.031Z,2.20
2023-05-20T01:34:57.324Z,2.50
2023-05-20T01:40:01.067Z,2.40
2023-05-20T01:45:04.846Z,2.40
2023-05-20T01:50:08.617Z,2.60
2023-05-20T01:55:12.011Z,2.30
2023-05-20T02:00:15.459Z,2.70
2023-05-20T02:05:19.152Z,2.60
2023-05-20T02:10:22.160Z,2.60
2023-05-20T02:15:25.195Z,2.70
2023-05-20T02:20:28.996Z,2.60
2023-05-20T02:25:33.203Z,2.50
2023-05-20T02:30:39.816Z,2.50
2023-05-20T02:35:43.041Z,2.60
2023-05-20T02:40:46.037Z,2.60
2023-05-20T02:45:48.970Z,2.20
2023-05-20T02:50:53.278Z,2.40
2023-05-20T02:55:58.207Z,2.40
2023-05-20T03:01:01.624Z,2.20
2023-05-20T03:06:05.163Z,2.30
2023-05-20T03:11:08.377Z,2.20
2023-05-20T03:16:13.334Z,2.70
2023-05-20T03:21:16.638Z,2.70
2023-05-20T03:26:19.749Z,2.70
2023-05-20T03:31:22.812Z,2.50
2023-05-20T03:36:25.971Z,2.50
2023-05-20T03:41:28.999Z,2.60
2023-05-20T03:46:34.233Z,2.70
2023-05-20T03:51:37.446Z,2.50
2023-05-20T03:56:40.871Z,2.80
2023-05-20T04:01:43.833Z,2.30
2023-05-20T04:06:46.870Z,2.40
2023-05-20T04:11:49.878Z,2.50
2023-05-20T04:16:52.960Z,2.50
2023-05-20T04:21:57.166Z,2.70
2023-05-20T04:27:00.065Z,2.40
2023-05-20T04:32:03.842Z,2.70
2023-05-20T04:37:09.830Z,2.20
2023-05-20T04:42:13.754Z,2.50
2023-05-20T04:47:16.782Z,2.70
2023-05-20T04:52:19.974Z,2.60
2023-05-20T04:57:22.886Z,2.60
2023-05-20T05:02:25.989Z,2.90
2023-05-20T05:07:29.013Z,2.90
2023-05-20T05:12:32.002Z,2.80
2023-05-20T05:17:35.040Z,2.60
2023-05-20T05:22:39.864Z,2.50
2023-05-20T05:27:43.275Z,2.40
2023-05-20T05:32:46.322Z,2.70
2023-05-20T05:37:49.387Z,2.40
2023-05-20T05:42:52.802Z,2.80
2023-05-20T05:47:55.848Z,2.50
2023-05-20T05:52:59.534Z,2.50
2023-05-20T05:58:02.745Z,2.80
2023-05-20T06:03:05.842Z,2.60
2023-05-20T06:08:09.066Z,2.70
2023-05-20T06:13:11.965Z,3.20
2023-05-20T06:18:14.989Z,3.10
2023-05-20T06:23:17.885Z,2.50
2023-05-20T06:28:21.090Z,2.90
2023-05-20T06:33:27.632Z,2.60
2023-05-20T06:38:31.105Z,2.70
2023-05-20T06:43:34.629Z,2.70
2023-05-20T06:48:37.632Z,2.70
2023-05-20T06:53:40.840Z,2.70
2023-05-20T06:58:43.844Z,2.70
2023-05-20T07:03:46.903Z,2.60
2023-05-20T07:08:50.063Z,2.60
2023-05-20T07:13:53.779Z,2.50
2023-05-20T07:18:56.834Z,2.30
2023-05-20T07:24:00.006Z,2.40
2023-05-20T07:29:04.931Z,2.70
2023-05-20T07:34:07.968Z,2.40
2023-05-20T07:39:14.388Z,2.50
2023-05-20T07:44:22.475Z,2.70
2023-05-20T07:49:25.992Z,2.50
2023-05-20T07:54:28.998Z,2.40
2023-05-20T07:59:32.107Z,2.30
2023-05-20T08:04:36.120Z,2.30
2023-05-20T08:09:39.348Z,2.30
2023-05-20T08:14:42.357Z,2.30
2023-05-20T08:19:45.298Z,2.50
2023-05-20T08:24:48.521Z,2.80
2023-05-20T08:29:51.582Z,2.50
2023-05-20T08:34:54.794Z,2.90
2023-05-20T08:39:57.679Z,2.80
2023-05-20T08:45:01.975Z,2.60
2023-05-20T08:50:05.554Z,2.60
2023-05-20T08:55:10.493Z,2.60
2023-05-20T09:00:17.309Z,2.50
2023-05-20T09:05:21.338Z,2.50
2023-05-20T09:10:24.340Z,2.80
2023-05-20T09:15:27.449Z,2.60
2023-05-20T09:20:31.898Z,2.70
2023-05-20T09:25:36.646Z,2.40
2023-05-20T09:30:39.845Z,2.70
2023-05-20T09:35:43.157Z,2.60
2023-05-20T09:40:48.099Z,2.40
2023-05-20T09:45:51.469Z,2.50
2023-05-20T09:50:57.206Z,2.40
2023-05-20T09:56:00.213Z,2.30
2023-05-20T10:01:03.451Z,2.50
2023-05-20T10:06:35.919Z,2.30
2023-05-20T10:11:58.315Z,2.50
2023-05-20T10:17:14.086Z,2.30
2023-05-20T10:22:31.732Z,2.40
2023-05-20T10:27:48.139Z,2.30
2023-05-20T10:33:03.405Z,2.40
2023-05-20T10:38:11.512Z,2.00
2023-05-20T10:43:18.880Z,2.30
2023-05-20T10:48:34.563Z,2.10
2023-05-20T10:53:41.795Z,2.50
2023-05-20T10:58:45.309Z,2.50
2023-05-20T11:03:50.251Z,2.10
2023-05-20T11:08:53.593Z,2.10
2023-05-20T11:13:58.187Z,2.20
2023-05-20T11:19:01.180Z,2.30
2023-05-20T11:24:04.445Z,2.20
2023-05-20T11:29:07.962Z,2.20
2023-05-20T11:34:11.071Z,2.30
2023-05-20T11:39:15.075Z,2.50
2023-05-20T11:44:20.359Z,2.50
2023-05-20T11:49:23.368Z,2.70
2023-05-20T11:54:26.578Z,2.40
2023-05-20T11:59:29.903Z,2.30
2023-05-20T12:04:33.119Z,2.70
2023-05-20T12:09:36.317Z,2.50
2023-05-20T12:14:39.936Z,2.40
2023-05-20T12:19:43.013Z,2.60
2023-05-20T12:24:46.265Z,2.50
2023-05-20T12:29:49.273Z,2.60
2023-05-20T12:34:52.275Z,2.50
2023-05-20T12:39:55.184Z,2.50
2023-05-20T12:44:58.237Z,2.50
2023-05-20T12:50:01.889Z,2.60
2023-05-20T12:55:07.261Z,2.40
2023-05-20T13:00:11.730Z,2.70
2023-05-20T13:05:15.220Z,2.50
2023-05-20T13:10:18.896Z,2.80
2023-05-20T13:15:21.851Z,2.70
2023-05-20T13:20:24.867Z,2.70
2023-05-20T13:25:28.389Z,3.00
2023-05-20T13:30:32.962Z,3.10
2023-05-20T13:35:36.650Z,3.60
2023-05-20T13:40:39.593Z,3.30
2023-05-20T13:45:43.040Z,3.20
2023-05-20T13:50:46.283Z,3.20
2023-05-20T13:55:49.184Z,3.40
2023-05-20T14:00:52.395Z,3.20
2023-05-20T14:05:56.139Z,3.30
2023-05-20T14:10:59.120Z,3.00
2023-05-20T14:16:02.381Z,3.40
2023-05-20T14:21:05.789Z,3.30
2023-05-20T14:26:08.856Z,3.50
2023-05-20T14:31:11.891Z,3.50
2023-05-20T14:36:14.976Z,3.80
2023-05-20T14:41:17.980Z,3.60
2023-05-20T14:46:21.438Z,3.60
2023-05-20T14:51:24.507Z,3.60
2023-05-20T14:56:27.518Z,3.90
2023-05-20T15:01:30.519Z,3.80
2023-05-20T15:06:36.085Z,3.70
2023-05-20T15:11:39.092Z,3.60
2023-05-20T15:16:44.641Z,4.30
2023-05-20T15:21:49.829Z,4.20
2023-05-20T15:26:54.181Z,4.00
2023-05-20T15:31:57.163Z,3.80
2023-05-20T15:37:00.174Z,4.00
2023-05-20T15:42:03.697Z,4.00
2023-05-20T15:47:06.594Z,4.10
2023-05-20T15:52:09.704Z,3.90
2023-05-20T15:57:12.817Z,4.20
2023-05-20T16:02:16.587Z,4.10
2023-05-20T16:07:19.862Z,4.50
2023-05-20T16:12:24.191Z,3.90
2023-05-20T16:17:27.578Z,4.30
2023-05-20T16:22:30.618Z,4.20
2023-05-20T16:27:33.639Z,4.30
2023-05-20T16:32:37.149Z,4.60
2023-05-20T16:37:40.244Z,5.00
2023-05-20T16:42:45.093Z,5.20
2023-05-20T16:47:48.124Z,5.00
2023-05-20T16:52:51.312Z,5.10
2023-05-20T16:57:54.418Z,4.60
2023-05-20T17:02:57.477Z,4.60
2023-05-20T17:08:01.058Z,5.80
2023-05-20T17:13:04.458Z,5.00
2023-05-20T17:18:07.732Z,6.20
2023-05-20T17:23:10.889Z,6.70
2023-05-20T17:28:13.904Z,6.50
2023-05-20T17:33:17.607Z,5.70
2023-05-20T17:38:22.481Z,6.20
2023-05-20T17:43:25.894Z,6.40
2023-05-20T17:48:28.887Z,6.20
2023-05-20T17:53:31.831Z,7.10
2023-05-20T17:58:34.646Z,6.00
2023-05-20T18:03:40.103Z,7.30
2023-05-20T18:08:43.276Z,6.50
2023-05-20T18:13:47.104Z,7.60
2023-05-20T18:18:50.112Z,7.90
2023-05-20T18:23:53.110Z,8.00
2023-05-20T18:28:56.090Z,9.10
2023-05-20T18:33:59.020Z,9.90
2023-05-20T18:39:02.034Z,9.80
2023-05-20T18:44:05.859Z,9.00
2023-05-20T18:49:10.908Z,8.30
2023-05-20T18:54:13.936Z,7.90
2023-05-20T18:59:16.929Z,8.70
2023-05-20T19:04:19.934Z,7.80
2023-05-20T19:09:23.050Z,7.80
2023-05-20T19:14:26.251Z,7.60
2023-05-20T19:19:29.295Z,6.70
2023-05-20T19:24:32.881Z,7.80
2023-05-20T19:29:35.988Z,7.80
2023-05-20T19:34:39.112Z,7.20
2023-05-20T19:39:42.248Z,7.30
2023-05-20T19:44:46.886Z,6.60
2023-05-20T19:49:49.960Z,7.90
2023-05-20T19:54:53.067Z,6.90
2023-05-20T19:59:56.174Z,6.90
2023-05-20T20:04:59.558Z,7.10
2023-05-20T20:10:02.490Z,6.60
2023-05-20T20:15:05.909Z,7.50
2023-05-20T20:20:10.750Z,6.60
2023-05-20T20:25:14.074Z,7.70
2023-05-20T20:30:17.085Z,6.90
2023-05-20T20:35:22.851Z,8.00
2023-05-20T20:40:25.853Z,8.70
2023-05-20T20:45:28.764Z,8.20
2023-05-20T20:50:33.265Z,8.90
2023-05-20T20:55:36.258Z,9.00
2023-05-20T21:00:40.517Z,9.10
2023-05-20T21:05:44.681Z,9.00
2023-05-20T21:10:48.522Z,10.30
2023-05-20T21:15:51.568Z,10.00
2023-05-20T21:20:55.897Z,13.10
2023-05-20T21:25:58.859Z,11.70
2023-05-20T21:31:01.843Z,11.70
2023-05-20T21:36:05.302Z,10.20
2023-05-20T21:41:08.596Z,11.50
2023-05-20T21:46:11.878Z,10.30
2023-05-20T21:51:14.933Z,10.40
2023-05-20T21:56:18.127Z,9.30
2023-05-20T22:01:21.387Z,9.30
2023-05-20T22:06:26.100Z,9.00
2023-05-20T22:11:29.337Z,8.80
2023-05-20T22:16:32.362Z,8.90
2023-05-20T22:21:39.803Z,9.90
2023-05-20T22:26:52.452Z,9.60
2023-05-20T22:31:55.582Z,8.40
2023-05-20T22:36:58.682Z,8.30
2023-05-20T22:42:01.673Z,8.20
2023-05-20T22:47:04.822Z,9.40
2023-05-20T22:52:08.305Z,9.10
2023-05-20T22:57:12.746Z,8.20
2023-05-20T23:02:16.877Z,7.50
2023-05-20T23:07:19.881Z,8.70
2023-05-20T23:12:23.208Z,9.30
2023-05-20T23:17:26.153Z,9.90
2023-05-20T23:22:30.558Z,9.40
2023-05-20T23:27:33.962Z,9.80
2023-05-20T23:32:37.205Z,8.90
2023-05-20T23:37:41.146Z,9.10
2023-05-20T23:42:44.211Z,9.10
2023-05-20T23:47:48.265Z,8.60
2023-05-20T23:52:51.357Z,8.90
2023-05-20T23:57:54.872Z,9.50
